Time;durP1;ratioP1;P1;durP2;ratioP2;P2;SDS_P1;SDS_P2;PMS_P1;PMS_P2;Temp;Humidity;BMP_temperature;BMP_pressure;BME280_temperature;BME280_humidity;BME280_pressure;Samples;Min_cycle;Max_cycle;Signal;HPM_P1;HPM_P2
2022/03/25 00:00:10;;;;;;;22.83;11.27;;;;;;;19.23;47.09;101273.97;5112293;28;20176;-62
2022/03/25 00:02:36;;;;;;;28.27;12.23;;;;;;;19.24;47.37;101280.53;5126552;27;20411;-62
2022/03/25 00:05:02;;;;;;;32.67;12.30;;;;;;;19.24;47.24;101281.38;5133001;27;20467;-62
2022/03/25 00:07:28;;;;;;;35.13;11.40;;;;;;;19.26;47.49;101284.69;5114933;27;20440;-62
2022/03/25 00:09:53;;;;;;;26.93;12.03;;;;;;;19.24;47.32;101284.22;5132102;27;20414;-62
2022/03/25 00:12:19;;;;;;;26.23;12.30;;;;;;;19.24;47.31;101278.50;5133500;27;20166;-62
2022/03/25 00:14:44;;;;;;;24.20;12.10;;;;;;;19.23;47.81;101279.69;5133107;27;20196;-62
2022/03/25 00:17:10;;;;;;;22.47;12.10;;;;;;;19.24;47.51;101280.53;5123878;27;20169;-62
2022/03/25 00:19:35;;;;;;;22.83;10.60;;;;;;;19.26;47.55;101278.16;5115041;27;20306;-62
2022/03/25 00:22:01;;;;;;;28.77;11.73;;;;;;;19.29;47.72;101268.81;5115332;27;20173;-62
2022/03/25 00:24:26;;;;;;;23.87;10.73;;;;;;;19.27;47.60;101269.16;5112330;28;20157;-62
2022/03/25 00:26:51;;;;;;;23.03;11.73;;;;;;;19.26;47.67;101270.38;5112207;28;20219;-62
2022/03/25 00:29:17;;;;;;;27.63;11.83;;;;;;;19.26;47.88;101273.22;5112193;28;20230;-62
2022/03/25 00:31:43;;;;;;;17.90;11.13;;;;;;;19.28;47.83;101270.88;5112360;28;20157;-62
2022/03/25 00:34:09;;;;;;;26.20;11.03;;;;;;;19.28;47.77;101270.88;5111872;28;20209;-62
2022/03/25 00:36:34;;;;;;;24.43;10.10;;;;;;;19.27;47.63;101271.22;5109546;28;20247;-62
2022/03/25 00:39:00;;;;;;;18.87;10.37;;;;;;;19.27;47.72;101259.78;5110577;28;20169;-62
2022/03/25 00:41:25;;;;;;;24.50;10.03;;;;;;;19.30;47.73;101265.59;5111949;27;20174;-62
2022/03/25 00:43:51;;;;;;;24.57;10.70;;;;;;;19.30;47.79;101259.88;5110548;28;20185;-62
2022/03/25 00:46:17;;;;;;;21.30;9.87;;;;;;;19.28;47.68;101268.00;5110322;28;20181;-62
2022/03/25 00:48:42;;;;;;;23.27;11.33;;;;;;;19.33;47.76;101259.16;5110507;28;20633;-62
2022/03/25 00:51:08;;;;;;;24.07;10.47;;;;;;;19.29;47.78;101261.06;5118058;27;20188;-63
2022/03/25 00:53:34;;;;;;;19.33;9.03;;;;;;;19.30;47.94;101256.16;5129422;27;20193;-63
2022/03/25 00:56:01;;;;;;;26.13;11.30;;;;;;;19.28;48.18;101259.41;5113826;27;20407;-62
2022/03/25 00:58:27;;;;;;;22.53;9.97;;;;;;;19.31;47.78;101252.94;5131849;27;20184;-62
2022/03/25 01:00:53;;;;;;;24.53;9.63;;;;;;;19.28;48.37;101256.53;5125692;27;20431;-62
2022/03/25 01:03:19;;;;;;;20.47;10.00;;;;;;;19.31;47.69;101261.53;5111841;28;20404;-62
2022/03/25 01:05:45;;;;;;;20.03;9.37;;;;;;;19.32;48.23;101254.59;5089812;28;20559;-62
2022/03/25 01:08:11;;;;;;;17.23;10.20;;;;;;;19.32;48.05;101256.66;5090214;28;20247;-62
2022/03/25 01:10:36;;;;;;;23.03;9.83;;;;;;;19.30;48.19;101247.56;5090334;28;20424;-62
2022/03/25 01:13:03;;;;;;;18.37;9.47;;;;;;;19.31;48.72;101257.84;5091439;28;20444;-62
2022/03/25 01:15:29;;;;;;;18.83;9.33;;;;;;;19.28;48.57;101247.97;5089917;28;20204;-62
2022/03/25 01:17:54;;;;;;;17.23;9.60;;;;;;;19.30;48.33;101248.41;5106576;28;20419;-62
2022/03/25 01:20:20;;;;;;;20.90;9.87;;;;;;;19.28;48.49;101250.81;5111317;28;20181;-62
2022/03/25 01:22:45;;;;;;;19.63;10.07;;;;;;;19.28;48.19;101247.97;5111592;27;20176;-62
2022/03/25 01:25:11;;;;;;;16.37;9.13;;;;;;;19.29;48.17;101249.63;5107304;28;20185;-63
2022/03/25 01:27:36;;;;;;;20.03;9.00;;;;;;;19.28;48.45;101250.81;5110162;28;20533;-63
2022/03/25 01:30:03;;;;;;;23.10;9.20;;;;;;;19.28;48.40;101250.81;5111327;28;20230;-62
2022/03/25 01:32:28;;;;;;;16.90;9.67;;;;;;;19.27;48.58;101256.91;5111675;28;20648;-62
2022/03/25 01:34:54;;;;;;;19.70;8.73;;;;;;;19.27;48.37;101252.00;5111292;28;20460;-62
2022/03/25 01:37:19;;;;;;;16.83;9.07;;;;;;;19.27;48.50;101257.72;5111184;28;20215;-62
2022/03/25 01:39:45;;;;;;;15.83;8.47;;;;;;;19.25;48.80;101260.13;5110994;28;20571;-63
2022/03/25 01:42:10;;;;;;;19.50;9.17;;;;;;;19.24;48.47;101251.88;5111086;28;20223;-63
2022/03/25 01:44:36;;;;;;;25.97;8.77;;;;;;;19.26;48.49;101250.34;5099338;28;20185;-62
2022/03/25 01:47:02;;;;;;;14.57;8.53;;;;;;;19.28;48.75;101256.53;5090216;28;20193;-62
2022/03/25 01:49:27;;;;;;;17.33;8.37;;;;;;;19.25;48.62;101247.81;5093067;28;20206;-62
2022/03/25 01:51:55;;;;;;;15.63;9.13;;;;;;;19.27;48.57;101249.13;5094793;28;20166;-62
2022/03/25 01:54:24;;;;;;;15.83;8.70;;;;;;;19.28;48.44;101247.97;5109272;28;20242;-62
2022/03/25 01:56:53;;;;;;;15.30;9.10;;;;;;;19.27;48.54;101245.44;5110558;28;20406;-62
2022/03/25 01:59:18;;;;;;;20.37;8.53;;;;;;;19.29;49.23;101248.78;5110964;28;20531;-63
2022/03/25 02:01:44;;;;;;;15.43;8.10;;;;;;;19.24;48.68;101243.31;5099458;28;20983;-63
2022/03/25 02:04:09;;;;;;;19.10;8.27;;;;;;;19.26;48.52;101238.88;5090854;28;20194;-63
2022/03/25 02:06:35;;;;;;;15.30;8.73;;;;;;;19.24;48.91;101246.16;5107062;28;20248;-63
2022/03/25 02:09:00;;;;;;;14.30;8.43;;;;;;;19.21;48.81;101241.16;5110498;28;20174;-63
2022/03/25 02:11:28;;;;;;;14.53;7.83;;;;;;;19.24;49.04;101238.41;5110289;28;20880;-62
2022/03/25 02:13:53;;;;;;;18.17;8.17;;;;;;;19.25;48.76;101245.81;5110314;28;20643;-62
2022/03/25 02:16:18;;;;;;;15.33;8.13;;;;;;;19.25;48.79;101247.81;5111321;27;20412;-62
2022/03/25 02:18:45;;;;;;;18.13;8.30;;;;;;;19.24;48.89;101240.44;5119333;27;20178;-63
2022/03/25 02:21:11;;;;;;;13.07;8.20;;;;;;;19.25;49.00;101244.97;5092055;28;20178;-62
2022/03/25 02:23:36;;;;;;;15.47;8.30;;;;;;;19.21;49.04;101244.81;5113692;27;20461;-62
2022/03/25 02:26:01;;;;;;;13.73;8.23;;;;;;;19.21;48.94;101246.88;5130548;27;20169;-62
2022/03/25 02:28:27;;;;;;;12.90;7.80;;;;;;;19.23;48.97;101239.63;5095469;27;20167;-63
2022/03/25 02:30:53;;;;;;;16.00;7.93;;;;;;;19.20;48.92;101233.72;5130514;27;20157;-63
2022/03/25 02:33:18;;;;;;;15.47;6.90;;;;;;;19.23;48.84;101238.78;5130651;27;20185;-63
2022/03/25 02:35:50;;;;;;;17.57;8.00;;;;;;;19.23;49.03;101244.50;5130650;27;20173;-63
2022/03/25 02:38:19;;;;;;;11.70;6.73;;;;;;;19.24;49.37;101235.56;5112305;27;20209;-63
2022/03/25 02:40:45;;;;;;;14.37;7.70;;;;;;;19.21;49.02;101233.38;5111141;27;20418;-62
2022/03/25 02:43:11;;;;;;;14.23;8.00;;;;;;;19.21;49.12;101241.16;5104418;28;20426;-63
2022/03/25 02:45:37;;;;;;;14.17;8.40;;;;;;;19.23;49.06;101238.78;5108114;28;20666;-63
2022/03/25 02:48:03;;;;;;;15.40;7.50;;;;;;;19.21;49.01;101236.25;5110126;28;20411;-63
2022/03/25 02:50:29;;;;;;;21.53;8.90;;;;;;;19.21;49.29;101241.16;5116613;27;20914;-62
2022/03/25 02:52:55;;;;;;;12.40;7.60;;;;;;;19.23;49.04;101241.66;5130438;27;20245;-63
2022/03/25 02:55:20;;;;;;;16.13;7.80;;;;;;;19.21;49.22;101230.50;5129595;27;20169;-63
2022/03/25 02:57:46;;;;;;;14.20;7.60;;;;;;;19.21;49.20;101238.28;5111868;27;20399;-63
2022/03/25 03:00:12;;;;;;;15.27;7.97;;;;;;;19.24;49.16;101241.28;5129401;27;20190;-63
2022/03/25 03:02:37;;;;;;;16.70;8.50;;;;;;;19.21;49.63;101241.97;5091713;28;20169;-63
2022/03/25 03:05:05;;;;;;;13.57;7.87;;;;;;;19.21;49.34;101241.97;5109019;28;20226;-63
2022/03/25 03:07:30;;;;;;;12.37;7.37;;;;;;;19.24;49.12;101237.56;5108437;28;20250;-63
2022/03/25 03:09:56;;;;;;;11.63;7.40;;;;;;;19.26;48.95;101241.75;5108027;28;20515;-63
2022/03/25 03:12:22;;;;;;;15.57;7.60;;;;;;;19.24;49.22;101240.44;5109741;28;20218;-63
2022/03/25 03:14:47;;;;;;;12.40;7.77;;;;;;;19.23;49.17;101242.50;5109876;28;20181;-63
2022/03/25 03:17:13;;;;;;;13.83;7.33;;;;;;;19.25;49.25;101247.81;5118967;27;20425;-63
2022/03/25 03:19:39;;;;;;;10.70;7.27;;;;;;;19.24;49.50;101247.00;5129904;28;20184;-63
2022/03/25 03:22:05;;;;;;;10.00;6.67;;;;;;;19.23;49.37;101236.75;5124529;28;20650;-63
2022/03/25 03:24:30;;;;;;;13.83;7.17;;;;;;;19.23;49.02;101239.63;5109710;28;20192;-63
2022/03/25 03:26:57;;;;;;;11.50;6.70;;;;;;;19.22;49.18;101232.22;5109335;28;20173;-63
2022/03/25 03:29:23;;;;;;;12.43;7.63;;;;;;;19.21;49.29;101233.38;5108810;28;20177;-63
2022/03/25 03:31:49;;;;;;;11.30;6.80;;;;;;;19.21;49.48;101229.69;5109644;28;20396;-63
2022/03/25 03:34:14;;;;;;;14.40;8.07;;;;;;;19.22;49.19;101232.22;5109495;28;20186;-63
2022/03/25 03:36:39;;;;;;;14.20;7.23;;;;;;;19.23;49.30;101230.19;5109785;28;20222;-63
2022/03/25 03:39:05;;;;;;;13.33;7.23;;;;;;;19.21;49.21;101227.66;5108681;28;20246;-63
2022/03/25 03:41:31;;;;;;;12.70;7.40;;;;;;;19.19;49.30;101232.06;5109366;28;20177;-62
2022/03/25 03:43:56;;;;;;;12.50;7.50;;;;;;;19.23;49.55;101228.19;5109408;28;20261;-62
2022/03/25 03:46:22;;;;;;;12.17;7.20;;;;;;;19.24;49.41;101231.84;5119752;28;20169;-62
2022/03/25 03:48:49;;;;;;;12.10;8.10;;;;;;;19.23;49.41;101227.31;5128797;28;20183;-62
2022/03/25 03:51:14;;;;;;;11.13;6.20;;;;;;;19.23;48.97;101225.31;5129539;28;20421;-62
2022/03/25 03:53:40;;;;;;;10.97;6.87;;;;;;;19.23;49.37;101225.31;5127123;28;20443;-62
2022/03/25 03:56:06;;;;;;;11.93;7.23;;;;;;;19.19;49.54;101232.06;5108956;28;20181;-62
2022/03/25 03:58:31;;;;;;;9.13;6.17;;;;;;;19.21;49.76;101236.25;5108870;28;20515;-62
2022/03/25 04:00:57;;;;;;;12.50;7.10;;;;;;;19.22;49.47;101232.22;5117415;28;20169;-62
2022/03/25 04:03:22;;;;;;;11.40;6.13;;;;;;;19.24;49.30;101235.56;5108266;28;20181;-63
2022/03/25 04:05:48;;;;;;;12.43;6.60;;;;;;;19.23;49.26;101235.91;5108921;28;20221;-63
2022/03/25 04:08:13;;;;;;;11.23;6.63;;;;;;;19.22;49.42;101237.94;5109021;28;20177;-62
2022/03/25 04:10:38;;;;;;;12.40;6.80;;;;;;;19.20;49.80;101237.44;5109116;28;20189;-62
2022/03/25 04:13:04;;;;;;;11.17;7.00;;;;;;;19.22;49.30;101243.66;5111964;28;20186;-62
2022/03/25 04:15:30;;;;;;;10.07;7.07;;;;;;;19.22;49.32;101240.78;5109231;28;20177;-62
2022/03/25 04:17:56;;;;;;;11.83;7.10;;;;;;;19.20;49.54;101240.31;5128135;27;20302;-63
2022/03/25 04:20:21;;;;;;;8.97;6.17;;;;;;;19.19;49.67;101244.38;5114701;27;20164;-62
2022/03/25 04:22:47;;;;;;;10.20;7.07;;;;;;;19.20;49.54;101245.19;5129923;27;20197;-62
2022/03/25 04:25:13;;;;;;;11.20;7.10;;;;;;;19.19;49.63;101247.22;5133319;27;20541;-62
2022/03/25 04:27:46;;;;;;;10.17;6.60;;;;;;;19.21;49.54;101247.69;5114703;27;20288;-62
2022/03/25 04:30:12;;;;;;;8.80;5.90;;;;;;;19.21;49.46;101250.56;5131721;27;20442;-62
2022/03/25 04:32:37;;;;;;;9.43;6.70;;;;;;;19.20;49.70;101245.19;5133160;27;20466;-62
2022/03/25 04:35:03;;;;;;;13.53;6.73;;;;;;;19.18;49.71;101248.44;5130688;27;20182;-62
2022/03/25 04:37:29;;;;;;;10.93;6.70;;;;;;;19.20;49.68;101246.03;5112679;28;20179;-62
2022/03/25 04:39:54;;;;;;;11.20;7.13;;;;;;;19.22;49.68;101246.53;5093677;28;20184;-62
2022/03/25 04:42:19;;;;;;;11.57;6.63;;;;;;;19.21;49.61;101253.41;5096627;28;20288;-62
2022/03/25 04:44:45;;;;;;;10.80;6.90;;;;;;;19.21;49.86;101252.59;5112495;27;20181;-62
2022/03/25 04:47:10;;;;;;;12.13;6.40;;;;;;;19.20;49.67;101251.75;5114519;27;20220;-62
2022/03/25 04:49:36;;;;;;;13.57;7.47;;;;;;;19.22;49.68;101252.25;5111858;28;20635;-62
2022/03/25 04:52:01;;;;;;;11.17;7.53;;;;;;;19.24;49.46;101252.75;5111983;28;20173;-62
2022/03/25 04:54:27;;;;;;;9.90;6.70;;;;;;;19.21;49.59;101246.88;5111444;28;20219;-62
2022/03/25 04:56:53;;;;;;;9.27;5.77;;;;;;;19.20;49.98;101248.03;5113333;27;20177;-63
2022/03/25 04:59:18;;;;;;;10.87;6.63;;;;;;;19.21;49.78;101252.59;5132477;27;20169;-62
2022/03/25 05:01:44;;;;;;;12.70;5.97;;;;;;;19.22;49.61;101255.09;5126539;27;20185;-62
2022/03/25 05:04:09;;;;;;;11.40;6.27;;;;;;;19.21;49.73;101247.69;5112080;28;20730;-62
2022/03/25 05:06:34;;;;;;;11.20;5.93;;;;;;;19.22;49.60;101252.25;5111667;28;20228;-62
2022/03/25 05:09:00;;;;;;;8.47;5.73;;;;;;;19.21;49.76;101247.69;5111849;28;20177;-62
2022/03/25 05:11:25;;;;;;;9.40;5.80;;;;;;;19.18;49.65;101251.28;5111627;28;20162;-62
2022/03/25 05:13:51;;;;;;;11.10;6.30;;;;;;;19.18;49.80;101248.44;5111747;28;20219;-62
2022/03/25 05:16:16;;;;;;;9.83;6.27;;;;;;;19.20;49.83;101251.75;5113508;27;20195;-63
2022/03/25 05:18:42;;;;;;;11.50;6.27;;;;;;;19.20;49.82;101257.47;5131044;27;20196;-62
2022/03/25 05:21:07;;;;;;;10.27;5.90;;;;;;;19.20;49.86;101260.34;5131346;27;20177;-62
2022/03/25 05:23:33;;;;;;;9.20;6.37;;;;;;;19.19;49.80;101263.56;5131407;27;20173;-62
2022/03/25 05:25:58;;;;;;;11.53;6.00;;;;;;;19.21;49.86;101261.19;5128961;27;20753;-62
2022/03/25 05:28:25;;;;;;;10.00;6.80;;;;;;;19.19;49.92;101266.44;5131455;27;20217;-62
2022/03/25 05:30:51;;;;;;;9.73;5.90;;;;;;;19.21;50.24;101261.19;5131594;27;20269;-62
2022/03/25 05:33:16;;;;;;;8.40;5.40;;;;;;;19.20;49.87;101274.66;5112831;27;20470;-63
2022/03/25 05:35:42;;;;;;;8.53;5.60;;;;;;;19.21;49.73;101266.91;5111571;28;20716;-62
2022/03/25 05:38:08;;;;;;;8.50;5.80;;;;;;;19.20;49.90;101273.81;5111560;28;20174;-62
2022/03/25 05:40:33;;;;;;;8.67;5.93;;;;;;;19.19;50.12;101272.16;5110384;28;20170;-62
2022/03/25 05:42:59;;;;;;;9.90;6.20;;;;;;;19.23;49.72;101273.97;5110108;28;20410;-62
2022/03/25 05:45:26;;;;;;;7.40;4.90;;;;;;;19.21;49.72;101287.78;5110647;28;20652;-63
2022/03/25 05:47:51;;;;;;;9.53;6.23;;;;;;;19.21;49.79;101287.78;5110858;28;20419;-63
2022/03/25 05:50:17;;;;;;;9.43;6.00;;;;;;;19.20;49.99;101286.09;5110223;28;20933;-62
2022/03/25 05:52:43;;;;;;;9.77;5.43;;;;;;;19.18;50.27;101287.66;5105787;27;20197;-62
2022/03/25 05:55:09;;;;;;;9.97;5.37;;;;;;;19.19;50.01;101295.91;5130972;27;20191;-62
2022/03/25 05:57:35;;;;;;;8.40;5.73;;;;;;;19.18;49.90;101290.53;5112974;27;20181;-62
2022/03/25 06:00:00;;;;;;;8.13;5.80;;;;;;;19.23;49.81;101290.31;5122429;27;20430;-62
2022/03/25 06:02:26;;;;;;;7.50;5.43;;;;;;;19.18;49.99;101288.50;5117123;27;20274;-62
2022/03/25 06:04:52;;;;;;;9.23;5.33;;;;;;;19.18;49.98;101294.25;5110889;27;20198;-62
2022/03/25 06:07:17;;;;;;;8.00;5.07;;;;;;;19.18;50.05;101293.38;5129047;27;20169;-62
2022/03/25 06:09:43;;;;;;;7.93;5.77;;;;;;;19.20;50.12;101291.00;5131067;27;20185;-62
2022/03/25 06:12:10;;;;;;;10.83;6.03;;;;;;;19.18;49.99;101297.09;5131498;27;20250;-62
2022/03/25 06:14:35;;;;;;;8.13;5.70;;;;;;;19.21;50.02;101295.53;5120567;27;20197;-62
2022/03/25 06:17:01;;;;;;;8.10;5.20;;;;;;;19.19;49.96;101301.63;5112290;27;20468;-62
2022/03/25 06:19:28;;;;;;;8.43;5.40;;;;;;;19.17;50.32;101306.84;5110058;28;20157;-62
2022/03/25 06:21:54;;;;;;;7.40;5.07;;;;;;;19.17;50.02;101306.03;5092363;28;20267;-62
2022/03/25 06:24:20;;;;;;;9.03;5.70;;;;;;;19.20;50.09;101308.16;5110030;28;20503;-62
2022/03/25 06:26:45;;;;;;;7.63;4.93;;;;;;;19.20;50.03;101308.16;5109614;28;20906;-62
2022/03/25 06:29:11;;;;;;;8.90;5.33;;;;;;;19.19;49.96;101310.22;5109907;28;20181;-62
2022/03/25 06:31:36;;;;;;;10.63;5.17;;;;;;;19.18;50.00;101308.56;5110075;27;20258;-62
2022/03/25 06:34:03;;;;;;;9.63;5.87;;;;;;;19.17;50.36;101308.91;5117436;27;20198;-62
2022/03/25 06:36:29;;;;;;;9.77;5.60;;;;;;;19.16;50.13;101302.34;5130405;27;20189;-62
2022/03/25 06:38:54;;;;;;;8.70;5.30;;;;;;;19.15;49.99;101305.56;5129355;27;20474;-62
2022/03/25 06:41:20;;;;;;;9.57;5.63;;;;;;;19.21;50.44;101309.84;5130259;27;20236;-62
2022/03/25 06:43:45;;;;;;;9.70;5.30;;;;;;;19.20;50.04;101311.03;5125496;27;20170;-62
2022/03/25 06:46:11;;;;;;;7.13;4.87;;;;;;;19.19;49.90;101315.94;5109617;28;20177;-62
2022/03/25 06:48:37;;;;;;;8.47;5.43;;;;;;;19.15;50.18;101320.72;5116219;27;20296;-62
2022/03/25 06:51:04;;;;;;;9.90;5.13;;;;;;;19.19;49.93;101320.81;5110705;27;20541;-62
2022/03/25 06:53:30;;;;;;;8.57;6.10;;;;;;;19.19;50.37;101320.81;5109359;28;20197;-62
2022/03/25 06:55:56;;;;;;;8.77;5.53;;;;;;;19.16;50.25;101328.09;5108920;28;20396;-62
2022/03/25 06:58:22;;;;;;;8.97;5.20;;;;;;;19.16;50.04;101322.38;5112283;27;20166;-62
2022/03/25 07:00:47;;;;;;;9.90;6.27;;;;;;;19.18;50.02;101328.59;5095612;27;20173;-62
2022/03/25 07:03:14;;;;;;;6.97;5.20;;;;;;;19.18;50.15;101330.59;5111676;27;20173;-62
2022/03/25 07:05:40;;;;;;;10.57;5.60;;;;;;;19.20;50.15;101328.19;5109277;28;20221;-62
2022/03/25 07:08:06;;;;;;;7.67;5.57;;;;;;;19.16;50.08;101338.72;5109433;28;20761;-62
2022/03/25 07:10:32;;;;;;;8.90;5.30;;;;;;;19.18;50.42;101344.91;5109120;28;20402;-62
2022/03/25 07:12:57;;;;;;;8.87;5.57;;;;;;;19.16;50.20;101341.59;5108177;28;20197;-62
2022/03/25 07:15:23;;;;;;;9.63;5.40;;;;;;;19.18;50.23;101340.03;5127883;27;20265;-62
2022/03/25 07:17:49;;;;;;;9.33;4.90;;;;;;;19.15;50.37;101340.75;5115191;27;20178;-62
2022/03/25 07:20:16;;;;;;;8.20;5.30;;;;;;;19.15;50.50;101346.47;5108780;28;20906;-62
2022/03/25 07:22:45;;;;;;;21.73;14.03;;;;;;;19.01;48.81;101345.19;5108809;28;20177;-62
2022/03/25 07:25:11;;;;;;;35.77;20.90;;;;;;;18.74;44.61;101343.03;5110183;28;20510;-62
2022/03/25 07:27:36;;;;;;;33.17;21.33;;;;;;;18.70;45.50;101345.78;5106727;27;20478;-65
2022/03/25 07:30:04;;;;;;;43.93;23.37;;;;;;;19.16;46.18;101348.13;5107294;28;20189;-64
2022/03/25 07:32:30;;;;;;;35.60;20.33;;;;;;;19.23;44.30;101341.84;5109201;27;20585;-63
2022/03/25 07:34:55;;;;;;;29.60;20.10;;;;;;;19.41;45.15;101346.13;5109054;28;20498;-63
2022/03/25 07:37:21;;;;;;;45.60;20.50;;;;;;;19.53;45.47;101346.91;5109152;28;20648;-63
2022/03/25 07:39:47;;;;;;;27.40;17.63;;;;;;;19.50;44.93;101346.78;5108597;28;20201;-62
2022/03/25 07:42:12;;;;;;;34.00;17.70;;;;;;;19.49;45.30;101354.56;5114620;28;20233;-63
2022/03/25 07:44:39;;;;;;;23.00;16.70;;;;;;;19.64;45.18;101359.53;5113252;28;20436;-64
2022/03/25 07:47:05;;;;;;;24.00;15.60;;;;;;;19.83;44.33;101358.84;5108250;28;20197;-64
2022/03/25 07:49:34;;;;;;;25.10;17.20;;;;;;;19.97;43.79;101354.38;5107992;28;20417;-62
2022/03/25 07:52:00;;;;;;;26.37;16.40;;;;;;;19.99;43.94;101354.84;5113489;27;20429;-63
2022/03/25 07:54:26;;;;;;;25.87;15.80;;;;;;;20.04;43.41;101354.59;5131482;27;20942;-64
2022/03/25 07:56:51;;;;;;;27.07;14.53;;;;;;;20.10;43.45;101364.63;5133345;27;20438;-65
2022/03/25 07:59:17;;;;;;;24.87;14.43;;;;;;;20.04;42.96;101366.06;5133514;27;20218;-65
2022/03/25 08:01:42;;;;;;;20.07;13.97;;;;;;;19.84;43.77;101358.50;5119748;27;20166;-64
2022/03/25 08:04:07;;;;;;;20.53;14.47;;;;;;;19.78;44.26;101359.13;5113308;28;20297;-64
2022/03/25 08:06:33;;;;;;;19.70;14.20;;;;;;;19.77;43.97;101360.31;5076886;28;20222;-63
2022/03/25 08:09:00;;;;;;;19.17;13.80;;;;;;;19.69;44.04;101356.41;5111327;28;20263;-63
2022/03/25 08:11:26;;;;;;;25.27;14.90;;;;;;;19.74;44.80;101358.16;5114110;27;20206;-63
2022/03/25 08:13:52;;;;;;;23.10;13.73;;;;;;;19.77;44.51;101352.53;5117420;27;20450;-63
2022/03/25 08:16:18;;;;;;;22.90;13.93;;;;;;;19.83;44.33;101356.84;5132646;27;20188;-63
2022/03/25 08:18:44;;;;;;;24.20;14.87;;;;;;;19.84;44.23;101358.50;5113043;28;20422;-65
2022/03/25 08:21:11;;;;;;;22.77;13.97;;;;;;;19.81;44.50;101356.34;5112038;28;20184;-63
2022/03/25 08:29:04;;;;;;;22.83;14.63;;;;;;;19.67;44.77;101366.56;5126847;27;20432;-63
2022/03/25 08:31:29;;;;;;;22.00;14.87;;;;;;;19.78;44.64;101356.25;5128890;27;20419;-64
2022/03/25 08:33:55;;;;;;;26.20;13.17;;;;;;;19.75;45.01;101357.81;5112335;28;20205;-64
2022/03/25 08:36:20;;;;;;;19.47;13.70;;;;;;;19.68;44.84;101354.75;5095073;28;20647;-64
2022/03/25 08:38:46;;;;;;;24.90;14.70;;;;;;;19.64;44.80;101373.00;5093502;28;20226;-64
2022/03/25 08:41:12;;;;;;;28.40;16.97;;;;;;;19.60;44.50;101367.16;5092181;28;20201;-63
2022/03/25 08:43:38;;;;;;;31.57;19.00;;;;;;;19.74;45.60;101364.75;5114715;27;20216;-64
2022/03/25 08:46:03;;;;;;;34.27;17.77;;;;;;;19.69;45.04;101367.88;5133117;27;20157;-64
2022/03/25 08:48:29;;;;;;;29.13;17.70;;;;;;;19.61;45.29;101371.69;5133119;27;20542;-65
2022/03/25 08:50:54;;;;;;;28.60;17.80;;;;;;;19.63;45.82;101368.47;5112528;27;20207;-63
2022/03/25 08:53:20;;;;;;;31.60;17.47;;;;;;;19.59;45.45;101368.38;5127883;27;20196;-63
2022/03/25 08:55:46;;;;;;;34.37;17.67;;;;;;;19.55;45.53;101361.69;5114862;27;20228;-63
2022/03/25 08:58:11;;;;;;;36.83;18.70;;;;;;;19.52;45.56;101367.31;5133529;27;20888;-63
2022/03/25 09:00:37;;;;;;;34.50;18.03;;;;;;;19.50;45.60;101359.09;5128629;27;20537;-63
2022/03/25 09:03:03;;;;;;;33.63;17.63;;;;;;;19.47;45.87;101362.66;5110823;28;20165;-62
2022/03/25 09:05:28;;;;;;;42.77;18.93;;;;;;;19.45;46.80;101359.34;5109746;28;20849;-62
2022/03/25 09:07:54;;;;;;;36.27;18.70;;;;;;;19.45;46.53;101361.34;5110681;28;20177;-62
2022/03/25 09:10:19;;;;;;;30.07;16.97;;;;;;;19.46;46.45;101361.00;5112567;28;20246;-62
2022/03/25 09:12:45;;;;;;;30.03;18.03;;;;;;;19.48;46.76;101357.78;5112365;28;20192;-62
2022/03/25 09:15:13;;;;;;;29.63;16.40;;;;;;;19.49;46.64;101359.44;5112338;28;20181;-62
2022/03/25 09:17:39;;;;;;;30.37;16.20;;;;;;;19.48;46.86;101358.63;5124848;27;20181;-62
2022/03/25 09:20:05;;;;;;;33.33;14.87;;;;;;;19.51;47.00;101359.94;5131345;27;20422;-62
2022/03/25 09:22:32;;;;;;;33.17;16.53;;;;;;;19.52;46.99;101359.53;5131476;27;20407;-62
2022/03/25 09:24:58;;;;;;;23.63;14.60;;;;;;;19.51;47.22;101357.06;5120910;27;20480;-62
2022/03/25 09:27:23;;;;;;;31.87;14.60;;;;;;;19.51;47.27;101359.94;5111985;28;20450;-62
2022/03/25 09:29:48;;;;;;;25.17;13.80;;;;;;;19.55;47.53;101360.84;5111302;28;20186;-62
2022/03/25 09:32:14;;;;;;;30.20;14.80;;;;;;;19.54;47.37;101353.47;5111660;28;20178;-62
2022/03/25 09:37:24;;;;;;;27.30;14.03;;;;;;;19.55;47.85;101349.38;5111083;28;20173;-62
2022/03/25 09:39:50;;;;;;;31.40;14.20;;;;;;;19.52;47.78;101353.81;5111762;28;20415;-62
2022/03/25 09:42:15;;;;;;;18.17;11.63;;;;;;;19.50;48.49;101346.78;5092380;28;20299;-62
2022/03/25 09:44:42;;;;;;;26.60;12.50;;;;;;;19.48;48.12;101343.47;5111244;28;20522;-62
2022/03/25 09:47:10;;;;;;;19.00;12.03;;;;;;;19.48;47.95;101346.31;5113280;27;20166;-62
2022/03/25 09:49:36;;;;;;;28.00;12.00;;;;;;;19.48;48.27;101344.31;5111726;28;20442;-62
2022/03/25 09:52:01;;;;;;;22.13;11.73;;;;;;;19.49;48.36;101345.13;5093433;28;20412;-62
2022/03/25 09:54:27;;;;;;;23.40;11.67;;;;;;;19.46;48.41;101340.94;5110487;28;20223;-62
2022/03/25 09:56:52;;;;;;;19.40;10.40;;;;;;;19.47;48.59;101341.78;5093067;28;20239;-62
2022/03/25 09:59:18;;;;;;;18.67;11.27;;;;;;;19.48;48.39;101337.72;5112204;27;20170;-62
2022/03/25 10:01:43;;;;;;;19.77;10.70;;;;;;;19.46;48.51;101340.13;5117177;27;20182;-62
2022/03/25 10:04:09;;;;;;;20.23;9.80;;;;;;;19.44;48.49;101340.50;5111109;28;20496;-62
2022/03/25 10:06:47;;;;;;;17.80;10.57;;;;;;;19.47;48.74;101334.00;5092183;28;20735;-62
2022/03/25 10:09:16;;;;;;;20.73;10.30;;;;;;;19.45;48.69;101319.25;5110806;28;20181;-62
2022/03/25 10:11:42;;;;;;;17.70;9.80;;;;;;;19.43;48.67;101324.50;5078767;28;20447;-62
2022/03/25 10:14:23;;;;;;;16.80;9.57;;;;;;;19.47;48.61;101318.88;5116982;27;20458;-62
2022/03/25 10:16:53;;;;;;;20.47;9.23;;;;;;;19.45;48.66;101327.84;5125749;27;20501;-62
2022/03/25 10:19:19;;;;;;;20.67;9.57;;;;;;;19.43;48.89;101329.38;5111373;28;20457;-62
2022/03/25 10:21:57;;;;;;;15.47;9.10;;;;;;;19.43;49.22;101323.66;5122779;27;20492;-62
2022/03/25 10:24:55;;;;;;;15.90;9.10;;;;;;;19.44;49.02;101320.44;5113642;27;20422;-62
2022/03/25 10:27:21;;;;;;;15.00;8.90;;;;;;;19.42;49.04;101322.81;5057889;27;20423;-62
2022/03/25 10:29:47;;;;;;;14.20;8.47;;;;;;;19.42;49.21;101324.88;5130415;27;20392;-62
2022/03/25 10:32:14;;;;;;;12.20;8.20;;;;;;;19.41;49.18;101308.88;5131512;27;20422;-62
2022/03/25 10:34:41;;;;;;;16.90;7.90;;;;;;;19.43;49.16;101317.94;5131329;27;20193;-63
2022/03/25 10:37:09;;;;;;;19.87;8.67;;;;;;;19.41;49.25;101312.56;5130271;27;20425;-63
2022/03/25 10:39:34;;;;;;;17.43;9.37;;;;;;;19.42;49.12;101308.50;5128211;27;20420;-63
2022/03/25 10:42:02;;;;;;;24.13;9.93;;;;;;;19.44;49.34;101308.13;5130510;27;20422;-63
2022/03/25 10:44:41;;;;;;;14.20;8.73;;;;;;;19.44;49.11;101316.72;5119947;27;20193;-63
2022/03/25 10:47:15;;;;;;;14.97;7.73;;;;;;;19.44;49.11;101305.28;5110601;28;20890;-62
2022/03/25 10:49:46;;;;;;;12.50;8.43;;;;;;;19.39;49.64;101309.25;5110904;28;20447;-62
2022/03/25 10:52:30;;;;;;;13.40;7.67;;;;;;;19.44;49.31;101305.28;5111290;28;20421;-62
2022/03/25 10:55:15;;;;;;;12.60;6.90;;;;;;;19.43;49.42;101307.31;5109420;28;20465;-62
2022/03/25 10:57:58;;;;;;;12.63;7.47;;;;;;;19.45;49.35;101304.91;5111741;27;20423;-62
2022/03/25 11:00:24;;;;;;;12.07;7.27;;;;;;;19.42;49.37;101299.91;5112045;27;20415;-62
2022/03/25 11:02:49;;;;;;;14.07;7.17;;;;;;;19.44;49.33;101300.41;5113068;27;20416;-62
2022/03/25 11:05:15;;;;;;;13.90;6.73;;;;;;;19.44;49.59;101300.41;5110508;28;20502;-62
2022/03/25 11:07:43;;;;;;;9.57;6.57;;;;;;;19.44;49.37;101300.41;5109862;28;20693;-62
2022/03/25 11:10:13;;;;;;;11.63;6.70;;;;;;;19.45;49.66;101296.31;5108975;28;20294;-63
2022/03/25 11:12:42;;;;;;;10.33;7.00;;;;;;;19.46;49.33;101295.13;5110333;28;20920;-63
2022/03/25 11:15:10;;;;;;;10.77;6.13;;;;;;;19.45;49.69;101293.47;5127630;27;20419;-63
2022/03/25 11:17:37;;;;;;;12.47;6.17;;;;;;;19.44;49.69;101291.81;5111556;27;20525;-63
2022/03/25 11:20:03;;;;;;;13.90;6.80;;;;;;;19.46;49.63;101292.25;5109728;28;20423;-63